sensor_id;sensor_type;location;lat;lon;timestamp;pressure;altitude;pressure_sealevel;temperature;humidity
25650;BME280;13505;45.196;5.696;2023-07-29T04:32:03;98920.22;;;22.20;76.04
25650;BME280;13505;45.196;5.696;2023-07-29T04:36:53;98911.81;;;22.33;74.27
25650;BME280;13505;45.196;5.696;2023-07-29T04:41:44;98912.84;;;21.76;75.60
25650;BME280;13505;45.196;5.696;2023-07-29T04:46:35;98916.69;;;21.73;75.42
25650;BME280;13505;45.196;5.696;2023-07-29T04:51:26;98909.94;;;22.15;73.41
25650;BME280;13505;45.196;5.696;2023-07-29T04:56:16;98912.25;;;22.28;72.77
25650;BME280;13505;45.196;5.696;2023-07-29T05:01:06;98920.09;;;22.22;72.16
25650;BME280;13505;45.196;5.696;2023-07-29T05:05:58;98911.03;;;22.23;71.75
25650;BME280;13505;45.196;5.696;2023-07-29T05:10:50;98923.66;;;21.94;73.38
25650;BME280;13505;45.196;5.696;2023-07-29T05:15:40;98920.53;;;21.99;72.97
25650;BME280;13505;45.196;5.696;2023-07-29T05:20:31;98927.19;;;22.13;73.00
25650;BME280;13505;45.196;5.696;2023-07-29T05:25:21;98929.69;;;21.78;75.64
25650;BME280;13505;45.196;5.696;2023-07-29T05:30:11;98923.38;;;21.87;75.93
25650;BME280;13505;45.196;5.696;2023-07-29T05:35:02;98921.22;;;22.01;75.29
25650;BME280;13505;45.196;5.696;2023-07-29T05:39:52;98902.19;;;22.12;75.34
25650;BME280;13505;45.196;5.696;2023-07-29T05:44:42;98911.16;;;22.49;73.03
25650;BME280;13505;45.196;5.696;2023-07-29T05:49:33;98909.41;;;22.84;71.40
25650;BME280;13505;45.196;5.696;2023-07-29T05:54:23;98905.91;;;23.10;69.75
25650;BME280;13505;45.196;5.696;2023-07-29T05:59:13;98911.16;;;23.20;68.81
25650;BME280;13505;45.196;5.696;2023-07-29T06:04:04;98915.03;;;23.44;67.53
25650;BME280;13505;45.196;5.696;2023-07-29T06:08:54;98911.63;;;23.68;66.60
25650;BME280;13505;45.196;5.696;2023-07-29T06:13:46;98916.19;;;23.76;65.21
25650;BME280;13505;45.196;5.696;2023-07-29T06:18:37;98906.44;;;24.18;62.85
25650;BME280;13505;45.196;5.696;2023-07-29T06:23:27;98911.63;;;24.11;63.51
25650;BME280;13505;45.196;5.696;2023-07-29T06:28:18;98899.69;;;24.31;63.44
25650;BME280;13505;45.196;5.696;2023-07-29T06:33:08;98896.16;;;24.22;64.72
25650;BME280;13505;45.196;5.696;2023-07-29T06:37:59;98901.72;;;23.77;67.36
25650;BME280;13505;45.196;5.696;2023-07-29T06:42:49;98904.44;;;24.70;63.40
25650;BME280;13505;45.196;5.696;2023-07-29T06:47:40;98910.94;;;25.42;60.19
25650;BME280;13505;45.196;5.696;2023-07-29T06:52:30;98912.53;;;25.68;59.18
25650;BME280;13505;45.196;5.696;2023-07-29T06:57:20;98912.84;;;25.08;59.92
25650;BME280;13505;45.196;5.696;2023-07-29T07:02:11;98922.13;;;25.06;59.38
25650;BME280;13505;45.196;5.696;2023-07-29T07:07:01;98929.38;;;24.64;61.02
25650;BME280;13505;45.196;5.696;2023-07-29T07:11:52;98925.75;;;25.46;57.82
25650;BME280;13505;45.196;5.696;2023-07-29T07:16:42;98915.19;;;25.85;56.61
25650;BME280;13505;45.196;5.696;2023-07-29T07:21:32;98917.56;;;26.66;54.83
25650;BME280;13505;45.196;5.696;2023-07-29T07:26:23;98931.38;;;27.48;51.96
25650;BME280;13505;45.196;5.696;2023-07-29T07:31:13;98932.13;;;27.72;52.53
25650;BME280;13505;45.196;5.696;2023-07-29T07:36:04;98929.38;;;28.02;51.07
25650;BME280;13505;45.196;5.696;2023-07-29T07:40:55;98923.38;;;28.07;50.97
25650;BME280;13505;45.196;5.696;2023-07-29T07:45:46;98925.41;;;27.68;51.47
25650;BME280;13505;45.196;5.696;2023-07-29T07:50:37;98932.31;;;27.40;53.09
25650;BME280;13505;45.196;5.696;2023-07-29T07:55:27;98936.41;;;27.51;52.97
25650;BME280;13505;45.196;5.696;2023-07-29T08:00:17;98919.72;;;28.14;51.89
25650;BME280;13505;45.196;5.696;2023-07-29T08:05:09;98918.50;;;27.65;52.25
25650;BME280;13505;45.196;5.696;2023-07-29T08:09:59;98919.69;;;28.30;50.74
25650;BME280;13505;45.196;5.696;2023-07-29T08:14:50;98918.50;;;28.54;50.01
25650;BME280;13505;45.196;5.696;2023-07-29T08:19:40;98910.41;;;29.11;49.57
25650;BME280;13505;45.196;5.696;2023-07-29T08:24:30;98915.88;;;29.18;48.00
25650;BME280;13505;45.196;5.696;2023-07-29T08:29:21;98924.72;;;29.55;47.20
25650;BME280;13505;45.196;5.696;2023-07-29T08:34:11;98917.78;;;29.94;45.46
25650;BME280;13505;45.196;5.696;2023-07-29T08:39:02;98920.72;;;28.94;46.08
25650;BME280;13505;45.196;5.696;2023-07-29T08:43:56;98914.59;;;30.33;44.02
25650;BME280;13505;45.196;5.696;2023-07-29T08:48:49;98911.25;;;30.58;42.28
25650;BME280;13505;45.196;5.696;2023-07-29T08:53:40;98906.06;;;30.76;42.56
25650;BME280;13505;45.196;5.696;2023-07-29T08:58:31;98913.25;;;30.08;42.87
25650;BME280;13505;45.196;5.696;2023-07-29T09:03:21;98918.28;;;29.63;43.20
25650;BME280;13505;45.196;5.696;2023-07-29T09:08:11;98909.88;;;29.58;43.31
25650;BME280;13505;45.196;5.696;2023-07-29T09:13:02;98905.81;;;29.82;42.72
25650;BME280;13505;45.196;5.696;2023-07-29T09:17:53;98912.66;;;30.13;41.83
25650;BME280;13505;45.196;5.696;2023-07-29T09:22:43;98910.84;;;31.42;41.25
25650;BME280;13505;45.196;5.696;2023-07-29T09:27:34;98907.56;;;30.66;40.80
25650;BME280;13505;45.196;5.696;2023-07-29T09:32:28;98898.16;;;31.81;39.51
25650;BME280;13505;45.196;5.696;2023-07-29T09:37:22;98897.56;;;31.66;38.42
25650;BME280;13505;45.196;5.696;2023-07-29T09:42:22;98887.03;;;31.83;38.87
25650;BME280;13505;45.196;5.696;2023-07-29T09:47:24;98882.94;;;32.06;38.92
25650;BME280;13505;45.196;5.696;2023-07-29T09:52:22;98880.00;;;32.39;38.55
25650;BME280;13505;45.196;5.696;2023-07-29T09:57:18;98874.91;;;32.50;38.39
25650;BME280;13505;45.196;5.696;2023-07-29T10:02:13;98873.47;;;33.91;35.18
25650;BME280;13505;45.196;5.696;2023-07-29T10:07:06;98877.22;;;34.28;36.18
25650;BME280;13505;45.196;5.696;2023-07-29T10:11:57;98873.06;;;34.37;35.42
25650;BME280;13505;45.196;5.696;2023-07-29T10:16:48;98863.03;;;34.85;34.71
25650;BME280;13505;45.196;5.696;2023-07-29T10:21:41;98852.06;;;35.21;33.46
25650;BME280;13505;45.196;5.696;2023-07-29T10:26:37;98850.16;;;34.62;34.42
25650;BME280;13505;45.196;5.696;2023-07-29T10:31:29;98839.78;;;34.09;34.40
25650;BME280;13505;45.196;5.696;2023-07-29T10:36:19;98838.06;;;34.27;34.30
25650;BME280;13505;45.196;5.696;2023-07-29T10:41:10;98819.47;;;34.60;33.83
25650;BME280;13505;45.196;5.696;2023-07-29T10:56:12;98816.34;;;34.56;33.07
25650;BME280;13505;45.196;5.696;2023-07-29T11:01:12;98810.38;;;34.83;33.08
25650;BME280;13505;45.196;5.696;2023-07-29T11:06:04;98811.66;;;34.21;32.95
25650;BME280;13505;45.196;5.696;2023-07-29T11:11:08;98815.19;;;33.60;34.59
25650;BME280;13505;45.196;5.696;2023-07-29T11:15:59;98805.78;;;33.75;35.03
25650;BME280;13505;45.196;5.696;2023-07-29T11:20:49;98808.03;;;33.47;34.75
25650;BME280;13505;45.196;5.696;2023-07-29T11:25:40;98794.72;;;32.95;36.54
25650;BME280;13505;45.196;5.696;2023-07-29T11:30:30;98787.72;;;33.36;36.30
25650;BME280;13505;45.196;5.696;2023-07-29T11:35:21;98798.44;;;33.38;35.52
25650;BME280;13505;45.196;5.696;2023-07-29T11:40:19;98788.09;;;32.40;35.83
25650;BME280;13505;45.196;5.696;2023-07-29T11:45:10;98786.28;;;33.34;35.53
25650;BME280;13505;45.196;5.696;2023-07-29T11:50:01;98783.72;;;33.39;34.31
25650;BME280;13505;45.196;5.696;2023-07-29T11:54:52;98782.97;;;33.13;34.48
25650;BME280;13505;45.196;5.696;2023-07-29T11:59:43;98775.59;;;33.51;36.46
25650;BME280;13505;45.196;5.696;2023-07-29T12:04:34;98779.66;;;33.91;36.64
25650;BME280;13505;45.196;5.696;2023-07-29T12:09:25;98768.69;;;34.45;34.72
25650;BME280;13505;45.196;5.696;2023-07-29T12:14:17;98785.44;;;34.01;34.37
25650;BME280;13505;45.196;5.696;2023-07-29T12:19:07;98765.47;;;34.13;35.04
25650;BME280;13505;45.196;5.696;2023-07-29T12:23:57;98764.44;;;34.61;35.54
25650;BME280;13505;45.196;5.696;2023-07-29T12:28:48;98757.91;;;34.74;35.01
25650;BME280;13505;45.196;5.696;2023-07-29T12:33:38;98763.19;;;35.29;34.47
25650;BME280;13505;45.196;5.696;2023-07-29T12:38:29;98755.22;;;35.15;33.12
25650;BME280;13505;45.196;5.696;2023-07-29T12:43:19;98754.22;;;35.33;33.42
25650;BME280;13505;45.196;5.696;2023-07-29T12:48:10;98748.81;;;34.98;32.82
25650;BME280;13505;45.196;5.696;2023-07-29T12:53:01;98739.84;;;35.14;33.82
25650;BME280;13505;45.196;5.696;2023-07-29T12:57:51;98727.63;;;35.34;32.43
25650;BME280;13505;45.196;5.696;2023-07-29T13:02:42;98731.00;;;31.87;36.68
25650;BME280;13505;45.196;5.696;2023-07-29T13:07:32;98732.31;;;30.80;39.17
25650;BME280;13505;45.196;5.696;2023-07-29T13:12:22;98733.41;;;30.66;39.68
25650;BME280;13505;45.196;5.696;2023-07-29T13:17:12;98724.44;;;31.17;39.65
25650;BME280;13505;45.196;5.696;2023-07-29T13:22:03;98718.66;;;30.94;39.73
25650;BME280;13505;45.196;5.696;2023-07-29T13:26:53;98714.50;;;30.77;40.70
25650;BME280;13505;45.196;5.696;2023-07-29T13:31:44;98719.13;;;30.77;41.53
25650;BME280;13505;45.196;5.696;2023-07-29T13:36:34;98716.06;;;30.19;42.95
25650;BME280;13505;45.196;5.696;2023-07-29T13:41:24;98725.84;;;29.93;42.92
25650;BME280;13505;45.196;5.696;2023-07-29T13:46:15;98710.88;;;30.97;42.36
25650;BME280;13505;45.196;5.696;2023-07-29T13:51:05;98710.66;;;31.51;41.14
25650;BME280;13505;45.196;5.696;2023-07-29T13:55:55;98720.34;;;31.47;42.86
25650;BME280;13505;45.196;5.696;2023-07-29T14:00:46;98715.44;;;31.56;43.19
25650;BME280;13505;45.196;5.696;2023-07-29T14:05:36;98709.59;;;32.35;42.53
25650;BME280;13505;45.196;5.696;2023-07-29T14:10:26;98707.94;;;33.16;38.86
25650;BME280;13505;45.196;5.696;2023-07-29T14:15:17;98708.94;;;33.52;38.86
25650;BME280;13505;45.196;5.696;2023-07-29T14:20:07;98705.53;;;33.68;38.92
25650;BME280;13505;45.196;5.696;2023-07-29T14:24:58;98709.38;;;33.79;37.53
25650;BME280;13505;45.196;5.696;2023-07-29T14:29:49;98720.81;;;33.46;37.88
25650;BME280;13505;45.196;5.696;2023-07-29T14:34:39;98716.81;;;33.11;38.51
25650;BME280;13505;45.196;5.696;2023-07-29T14:39:29;98717.41;;;32.76;38.98
25650;BME280;13505;45.196;5.696;2023-07-29T14:44:20;98713.84;;;32.56;39.32
25650;BME280;13505;45.196;5.696;2023-07-29T14:49:10;98694.78;;;32.50;40.25
25650;BME280;13505;45.196;5.696;2023-07-29T14:54:00;98697.91;;;32.53;40.24
25650;BME280;13505;45.196;5.696;2023-07-29T14:58:51;98707.75;;;32.54;40.61
25650;BME280;13505;45.196;5.696;2023-07-29T15:03:41;98707.34;;;32.57;39.66
25650;BME280;13505;45.196;5.696;2023-07-29T15:08:31;98698.09;;;32.33;40.18
25650;BME280;13505;45.196;5.696;2023-07-29T15:13:22;98700.28;;;32.24;42.22
25650;BME280;13505;45.196;5.696;2023-07-29T15:18:12;98694.25;;;31.90;40.79
25650;BME280;13505;45.196;5.696;2023-07-29T15:23:03;98693.25;;;31.84;40.50
25650;BME280;13505;45.196;5.696;2023-07-29T15:27:53;98694.47;;;30.52;42.02
25650;BME280;13505;45.196;5.696;2023-07-29T15:32:43;98673.56;;;30.32;43.51
25650;BME280;13505;45.196;5.696;2023-07-29T15:37:34;98668.34;;;29.90;44.24
25650;BME280;13505;45.196;5.696;2023-07-29T15:42:25;98680.59;;;29.38;45.39
25650;BME280;13505;45.196;5.696;2023-07-29T15:47:15;98668.44;;;28.72;47.61
25650;BME280;13505;45.196;5.696;2023-07-29T15:52:08;98652.50;;;28.62;47.96
25650;BME280;13505;45.196;5.696;2023-07-29T15:57:01;98652.50;;;28.62;47.95
25650;BME280;13505;45.196;5.696;2023-07-29T16:01:51;98676.69;;;28.57;48.24
25650;BME280;13505;45.196;5.696;2023-07-29T16:06:41;98663.44;;;28.40;49.03
25650;BME280;13505;45.196;5.696;2023-07-29T16:11:32;98691.19;;;28.71;48.31
25650;BME280;13505;45.196;5.696;2023-07-29T16:16:23;98675.69;;;29.00;47.69
25650;BME280;13505;45.196;5.696;2023-07-29T16:21:13;98666.53;;;29.15;47.00
25650;BME280;13505;45.196;5.696;2023-07-29T16:26:04;98694.34;;;29.23;46.20
25650;BME280;13505;45.196;5.696;2023-07-29T16:30:54;98728.56;;;29.18;48.35
25650;BME280;13505;45.196;5.696;2023-07-29T16:35:44;98723.72;;;29.06;51.64
25650;BME280;13505;45.196;5.696;2023-07-29T16:40:35;98723.41;;;28.88;51.26
25650;BME280;13505;45.196;5.696;2023-07-29T16:45:25;98752.69;;;28.64;52.58
25650;BME280;13505;45.196;5.696;2023-07-29T16:50:17;98790.03;;;28.62;57.36
25650;BME280;13505;45.196;5.696;2023-07-29T16:55:08;98785.47;;;27.97;61.64
25650;BME280;13505;45.196;5.696;2023-07-29T16:59:59;98779.47;;;27.80;65.15
25650;BME280;13505;45.196;5.696;2023-07-29T17:04:49;98790.84;;;27.38;69.16
25650;BME280;13505;45.196;5.696;2023-07-29T17:09:39;98833.28;;;26.78;68.84
25650;BME280;13505;45.196;5.696;2023-07-29T17:14:30;98824.84;;;26.11;75.85
25650;BME280;13505;45.196;5.696;2023-07-29T17:19:20;98824.03;;;25.47;80.63
25650;BME280;13505;45.196;5.696;2023-07-29T17:24:10;98799.25;;;24.95;81.47
25650;BME280;13505;45.196;5.696;2023-07-29T17:29:01;98796.78;;;24.60;80.71
25650;BME280;13505;45.196;5.696;2023-07-29T17:33:51;98816.94;;;23.98;88.22
25650;BME280;13505;45.196;5.696;2023-07-29T17:38:41;98806.22;;;24.31;83.47
25650;BME280;13505;45.196;5.696;2023-07-29T17:43:32;98825.09;;;24.64;79.06
25650;BME280;13505;45.196;5.696;2023-07-29T17:48:22;98811.25;;;24.59;79.97
25650;BME280;13505;45.196;5.696;2023-07-29T17:53:12;98829.97;;;24.36;82.03
25650;BME280;13505;45.196;5.696;2023-07-29T17:58:03;98847.84;;;24.29;84.75
25650;BME280;13505;45.196;5.696;2023-07-29T18:02:54;98834.19;;;24.22;86.18
25650;BME280;13505;45.196;5.696;2023-07-29T18:07:45;98844.94;;;24.05;88.93
25650;BME280;13505;45.196;5.696;2023-07-29T18:12:36;98845.47;;;24.09;96.27
25650;BME280;13505;45.196;5.696;2023-07-29T18:17:28;98897.53;;;24.34;92.34
25650;BME280;13505;45.196;5.696;2023-07-29T18:22:18;98987.66;;;24.48;89.26
25650;BME280;13505;45.196;5.696;2023-07-29T18:27:09;98973.13;;;24.33;96.26
25650;BME280;13505;45.196;5.696;2023-07-29T18:32:01;98968.53;;;24.17;96.51
25650;BME280;13505;45.196;5.696;2023-07-29T18:36:51;98946.47;;;23.78;100.00
25650;BME280;13505;45.196;5.696;2023-07-29T18:41:41;98951.44;;;24.00;94.66
25650;BME280;13505;45.196;5.696;2023-07-29T18:46:33;98945.94;;;23.66;96.70
25650;BME280;13505;45.196;5.696;2023-07-29T18:51:23;98930.38;;;23.52;96.79
25650;BME280;13505;45.196;5.696;2023-07-29T18:56:13;98939.06;;;23.19;100.00
25650;BME280;13505;45.196;5.696;2023-07-29T19:01:03;98941.84;;;23.27;100.00
25650;BME280;13505;45.196;5.696;2023-07-29T19:05:55;99005.31;;;23.65;100.00
25650;BME280;13505;45.196;5.696;2023-07-29T19:10:46;99051.19;;;23.81;98.73
25650;BME280;13505;45.196;5.696;2023-07-29T19:15:36;99011.16;;;23.60;100.00
25650;BME280;13505;45.196;5.696;2023-07-29T19:20:28;99011.75;;;23.46;100.00
25650;BME280;13505;45.196;5.696;2023-07-29T19:25:20;99022.56;;;22.91;100.00
25650;BME280;13505;45.196;5.696;2023-07-29T19:30:10;99031.47;;;22.74;100.00
25650;BME280;13505;45.196;5.696;2023-07-29T19:35:00;99073.50;;;22.93;100.00
25650;BME280;13505;45.196;5.696;2023-07-29T19:39:51;99061.78;;;22.66;100.00
25650;BME280;13505;45.196;5.696;2023-07-29T19:44:41;99065.50;;;22.83;100.00
25650;BME280;13505;45.196;5.696;2023-07-29T19:49:32;99070.44;;;23.24;100.00
25650;BME280;13505;45.196;5.696;2023-07-29T19:54:22;99099.59;;;22.64;100.00
25650;BME280;13505;45.196;5.696;2023-07-29T19:59:12;99105.31;;;22.51;100.00
25650;BME280;13505;45.196;5.696;2023-07-29T20:04:03;99100.50;;;22.55;100.00
25650;BME280;13505;45.196;5.696;2023-07-29T20:08:53;99114.09;;;22.43;100.00
25650;BME280;13505;45.196;5.696;2023-07-29T20:13:43;99125.41;;;22.47;100.00
25650;BME280;13505;45.196;5.696;2023-07-29T20:18:34;99138.28;;;22.43;100.00
25650;BME280;13505;45.196;5.696;2023-07-29T20:23:24;99144.22;;;22.47;100.00
25650;BME280;13505;45.196;5.696;2023-07-29T20:28:14;99153.44;;;21.57;100.00
25650;BME280;13505;45.196;5.696;2023-07-29T20:33:05;99160.34;;;21.50;100.00
25650;BME280;13505;45.196;5.696;2023-07-29T20:37:57;99178.56;;;21.66;99.05
25650;BME280;13505;45.196;5.696;2023-07-29T20:42:47;99160.06;;;21.63;100.00
25650;BME280;13505;45.196;5.696;2023-07-29T20:47:37;99156.63;;;22.10;98.39
25650;BME280;13505;45.196;5.696;2023-07-29T20:52:28;99157.63;;;22.09;96.20
25650;BME280;13505;45.196;5.696;2023-07-29T20:57:18;99167.38;;;22.00;96.55
25650;BME280;13505;45.196;5.696;2023-07-29T21:02:08;99163.78;;;22.20;94.11
25650;BME280;13505;45.196;5.696;2023-07-29T21:07:00;99166.63;;;22.18;90.97
25650;BME280;13505;45.196;5.696;2023-07-29T21:11:50;99166.09;;;22.14;91.17
25650;BME280;13505;45.196;5.696;2023-07-29T21:16:41;99174.88;;;22.07;88.51
25650;BME280;13505;45.196;5.696;2023-07-29T21:21:32;99175.03;;;22.43;89.67
25650;BME280;13505;45.196;5.696;2023-07-29T21:26:22;99173.53;;;22.30;89.37
25650;BME280;13505;45.196;5.696;2023-07-29T21:31:12;99182.09;;;21.96;89.37
25650;BME280;13505;45.196;5.696;2023-07-29T21:36:03;99174.97;;;22.25;90.39
25650;BME280;13505;45.196;5.696;2023-07-29T21:40:53;99189.28;;;21.96;89.08
25650;BME280;13505;45.196;5.696;2023-07-29T21:45:44;99192.41;;;21.61;90.50
25650;BME280;13505;45.196;5.696;2023-07-29T21:50:35;99190.69;;;21.51;89.98
25650;BME280;13505;45.196;5.696;2023-07-29T21:55:25;99191.28;;;21.64;92.40
